Terminal Aerodrome Forecast
Issued by NWS Shreveport, LA

Home | Current Version | Previous Version | Text Only | Print | Product List | Glossary On
Versions: 1 2 3 4 5 6 7 8 9 10 11 12 13 14 15 16
163
FTUS44 KSHV 240538
TAFTXK
TAF
KTXK 240538Z 2406/2506 24005KT P6SM SCT250
     FM240800 VRB04KT P6SM SCT015 SCT030 OVC100
      TEMPO 2410/2414 BKN007 BKN015
     FM241600 22006KT P6SM VCTS SCT050CB
      TEMPO 2418/2422 VRB15G25KT 4SM -TSRA OVC030CB
     FM250000 19004KT P6SM BKN250=

USA.gov is the U.S. government's official web portal to all federal, state and local government web resources and services.